Terminal Aerodrome Forecast
Issued by NWS

Home | Current Version | Previous Version | Text Only | Print | Product List | Glossary On
Versions: 1 2 3 4 5 6 7 8 9 10 11 12 13 14 15 16 17 18 19 20 21 22 23 24 25
000
FTUS42 KMFL 251745 CCA
TAFMIA
TAF COR
KMIA 251745Z 2518/2618 VRB06KT P6SM VCTS SCT025CB
     FM260000 VRB03KT P6SM FEW025
     FM261500 VRB06KT P6SM FEW025 SCT250=

USA.gov is the U.S. government's official web portal to all federal, state and local government web resources and services.